Time;durP1;ratioP1;P1;durP2;ratioP2;P2;SDS_P1;SDS_P2;PMS_P1;PMS_P2;Temp;Humidity;BMP_temperature;BMP_pressure;BME280_temperature;BME280_humidity;BME280_pressure;Samples;Min_cycle;Max_cycle;Signal;HPM_P1;HPM_P2
2020/12/28 00:01:02;;;;;;;2.75;1.10;;;9.60;99.70;;;;;;5011572;28;20301;-28
2020/12/28 00:03:32;;;;;;;1.33;1.23;;;9.50;99.90;;;;;;5011561;28;20628;-29
2020/12/28 00:06:02;;;;;;;0.90;0.90;;;9.40;99.90;;;;;;5011537;28;20721;-29
2020/12/28 00:08:32;;;;;;;1.10;1.00;;;9.30;99.80;;;;;;4996016;28;20622;-28
2020/12/28 00:11:02;;;;;;;0.95;0.95;;;9.20;99.90;;;;;;5011687;28;20333;-28
2020/12/28 00:13:33;;;;;;;0.88;0.88;;;9.10;99.90;;;;;;5011209;28;20200;-28
2020/12/28 00:16:03;;;;;;;1.98;1.17;;;9.00;99.90;;;;;;5010627;28;20694;-29
2020/12/28 00:18:33;;;;;;;2.78;1.20;;;9.00;99.90;;;;;;5011796;28;20241;-29
2020/12/28 00:21:03;;;;;;;0.93;0.80;;;8.90;99.90;;;;;;5008847;28;20207;-29
2020/12/28 00:23:33;;;;;;;1.42;1.08;;;8.80;99.90;;;;;;5010768;28;20207;-29
2020/12/28 00:26:03;;;;;;;1.20;1.10;;;8.70;99.90;;;;;;5011613;28;20207;-29
2020/12/28 00:28:34;;;;;;;1.33;1.10;;;8.70;99.90;;;;;;5010492;28;20273;-30
2020/12/28 00:31:05;;;;;;;1.60;0.90;;;8.60;99.90;;;;;;5010594;28;20218;-29
2020/12/28 00:33:35;;;;;;;2.15;1.10;;;8.50;99.90;;;;;;5010822;28;20215;-29
2020/12/28 00:36:05;;;;;;;1.45;1.35;;;8.40;99.90;;;;;;5011245;28;20199;-29
2020/12/28 00:38:35;;;;;;;1.55;1.38;;;8.40;99.90;;;;;;5010566;28;20227;-28
2020/12/28 00:41:05;;;;;;;2.20;1.35;;;8.30;99.90;;;;;;5006096;28;20212;-28
2020/12/28 00:43:36;;;;;;;1.88;1.25;;;8.30;99.90;;;;;;5009724;28;20598;-28
2020/12/28 00:46:08;;;;;;;2.33;2.00;;;8.20;99.90;;;;;;5009249;28;20277;-29
2020/12/28 00:48:38;;;;;;;2.10;2.00;;;8.20;99.90;;;;;;5011262;28;20219;-28
2020/12/28 00:51:12;;;;;;;1.25;1.17;;;8.10;99.90;;;;;;5010721;28;20242;-28
2020/12/28 00:53:43;;;;;;;3.13;2.08;;;8.00;99.90;;;;;;5010690;28;20612;-28
2020/12/28 00:56:15;;;;;;;1.27;1.17;;;7.90;99.90;;;;;;5007874;28;20216;-28
2020/12/28 00:58:46;;;;;;;4.95;1.65;;;7.90;99.90;;;;;;5003383;28;20259;-28
2020/12/28 01:01:16;;;;;;;1.23;1.15;;;7.80;99.90;;;;;;5009519;28;20730;-28
2020/12/28 01:03:46;;;;;;;1.45;1.10;;;7.70;99.90;;;;;;5011103;28;20264;-28
2020/12/28 01:06:16;;;;;;;1.23;1.13;;;7.70;99.90;;;;;;5010437;28;20215;-29
2020/12/28 01:08:46;;;;;;;1.40;1.30;;;7.60;99.90;;;;;;5011045;28;20330;-29
2020/12/28 01:11:21;;;;;;;1.30;1.20;;;7.60;99.90;;;;;;5010040;28;20241;-28
2020/12/28 01:13:53;;;;;;;1.25;1.15;;;7.60;99.90;;;;;;5011082;28;20201;-28
2020/12/28 01:16:23;;;;;;;0.88;0.80;;;7.50;99.90;;;;;;5010298;28;20666;-28
2020/12/28 01:18:53;;;;;;;1.05;0.95;;;7.50;99.90;;;;;;5010371;28;20199;-28
2020/12/28 01:21:23;;;;;;;1.92;1.50;;;7.50;99.90;;;;;;5009441;28;20607;-28
2020/12/28 01:23:53;;;;;;;1.83;1.73;;;7.50;99.90;;;;;;5011091;28;20199;-28
2020/12/28 01:26:23;;;;;;;1.30;1.02;;;7.40;99.90;;;;;;5009679;28;20276;-28
2020/12/28 01:28:55;;;;;;;1.27;1.17;;;7.30;99.90;;;;;;5010368;28;20223;-28
2020/12/28 01:31:25;;;;;;;1.27;1.20;;;7.30;99.90;;;;;;5009598;28;20613;-28
2020/12/28 01:33:55;;;;;;;1.20;1.20;;;7.30;99.90;;;;;;5010334;28;20231;-28
2020/12/28 01:36:25;;;;;;;2.92;2.72;;;7.30;99.90;;;;;;5009676;28;20565;-28
2020/12/28 01:38:55;;;;;;;4.55;2.20;;;7.20;99.90;;;;;;5010323;28;20231;-27
2020/12/28 01:41:25;;;;;;;1.60;1.50;;;7.20;99.90;;;;;;5010325;28;20620;-28
2020/12/28 01:43:56;;;;;;;1.48;1.35;;;7.20;99.90;;;;;;5009988;28;20261;-27
2020/12/28 01:46:29;;;;;;;1.85;1.75;;;7.10;99.90;;;;;;4990234;28;20204;-28
2020/12/28 01:49:00;;;;;;;2.03;1.45;;;7.10;99.90;;;;;;4995600;28;20269;-28
2020/12/28 01:51:30;;;;;;;1.45;1.35;;;7.10;99.90;;;;;;5009708;28;20199;-28
2020/12/28 01:54:01;;;;;;;1.90;1.67;;;7.10;99.90;;;;;;4995248;28;20191;-28
2020/12/28 01:56:34;;;;;;;2.78;1.80;;;7.10;99.90;;;;;;4998691;28;20196;-28
2020/12/28 01:59:06;;;;;;;3.67;1.98;;;7.10;99.90;;;;;;5009609;28;20187;-28
2020/12/28 02:01:41;;;;;;;1.67;1.58;;;7.10;99.90;;;;;;5010127;28;20222;-28
2020/12/28 02:04:11;;;;;;;2.00;1.90;;;7.00;99.90;;;;;;5009507;28;20195;-28
2020/12/28 02:06:41;;;;;;;1.88;1.70;;;6.90;99.90;;;;;;5009756;28;20693;-29
2020/12/28 02:09:11;;;;;;;3.22;2.08;;;7.00;99.90;;;;;;5009833;28;20619;-28
2020/12/28 02:11:41;;;;;;;1.63;1.52;;;6.90;99.90;;;;;;5008678;28;20231;-28
2020/12/28 02:14:12;;;;;;;2.05;1.95;;;6.80;99.90;;;;;;5009253;28;20674;-28
2020/12/28 02:16:43;;;;;;;2.40;1.98;;;6.80;99.90;;;;;;5010037;28;20188;-29
2020/12/28 02:19:13;;;;;;;2.70;1.92;;;6.70;99.90;;;;;;5009454;28;20199;-28
2020/12/28 02:21:44;;;;;;;2.25;2.13;;;6.60;99.90;;;;;;5009877;28;20207;-28
2020/12/28 02:24:16;;;;;;;1.67;1.58;;;6.60;99.90;;;;;;5009034;28;20203;-28
2020/12/28 02:26:46;;;;;;;2.80;2.20;;;6.60;99.90;;;;;;5009306;28;20243;-29
2020/12/28 02:29:16;;;;;;;2.30;2.10;;;6.50;99.90;;;;;;4996241;28;20272;-28
2020/12/28 02:31:46;;;;;;;2.20;2.00;;;6.50;99.90;;;;;;5009572;28;20659;-27
2020/12/28 02:34:18;;;;;;;2.65;2.40;;;6.40;99.90;;;;;;5009770;28;20199;-27
2020/12/28 02:36:49;;;;;;;2.42;2.22;;;6.40;99.90;;;;;;5009560;28;20265;-27
2020/12/28 02:39:19;;;;;;;3.10;2.80;;;6.40;99.90;;;;;;5009850;28;20214;-28
2020/12/28 02:41:49;;;;;;;2.75;2.55;;;6.30;99.90;;;;;;5009261;28;20195;-28
2020/12/28 02:44:19;;;;;;;2.53;2.33;;;6.30;99.90;;;;;;5008736;28;20195;-28
2020/12/28 02:46:49;;;;;;;2.03;1.92;;;6.30;99.90;;;;;;5009489;28;20214;-27
2020/12/28 02:49:19;;;;;;;2.25;2.10;;;6.30;99.90;;;;;;5009349;28;20223;-28
2020/12/28 02:51:50;;;;;;;2.85;2.53;;;6.20;99.90;;;;;;5009598;28;20667;-28
2020/12/28 02:54:20;;;;;;;2.90;2.70;;;6.20;99.90;;;;;;5009446;28;20191;-28
2020/12/28 02:56:50;;;;;;;2.88;2.67;;;6.20;99.90;;;;;;5008592;28;20283;-28
2020/12/28 02:59:20;;;;;;;2.90;2.70;;;6.20;99.90;;;;;;5008228;28;20203;-27
2020/12/28 03:01:50;;;;;;;2.20;2.10;;;6.20;99.90;;;;;;5009370;28;20210;-28
2020/12/28 03:04:20;;;;;;;2.45;2.15;;;6.10;99.90;;;;;;5009207;28;20195;-28
2020/12/28 03:06:52;;;;;;;3.47;2.80;;;6.10;99.90;;;;;;5009113;28;20207;-28
2020/12/28 03:09:22;;;;;;;2.40;2.25;;;6.10;99.90;;;;;;5008910;28;20741;-28
2020/12/28 03:11:52;;;;;;;2.55;2.35;;;6.10;99.90;;;;;;4989593;28;20280;-29
2020/12/28 03:14:22;;;;;;;2.53;2.33;;;6.10;99.90;;;;;;5002974;28;20258;-29
2020/12/28 03:16:52;;;;;;;3.38;2.40;;;6.10;99.90;;;;;;5009286;28;20199;-29
2020/12/28 03:19:22;;;;;;;2.88;2.67;;;6.10;99.90;;;;;;5009121;28;20261;-28
2020/12/28 03:21:53;;;;;;;2.95;2.67;;;6.00;99.90;;;;;;5009143;28;20344;-28
2020/12/28 03:24:23;;;;;;;2.55;2.35;;;6.00;99.90;;;;;;5010928;28;20211;-28
2020/12/28 03:26:53;;;;;;;2.80;2.60;;;6.00;99.90;;;;;;5012006;28;20203;-27
2020/12/28 03:29:23;;;;;;;3.33;2.63;;;6.00;99.90;;;;;;5011505;28;20238;-27
2020/12/28 03:31:53;;;;;;;3.75;3.45;;;6.00;99.90;;;;;;5011871;28;20199;-27
2020/12/28 03:34:24;;;;;;;3.00;2.80;;;6.00;99.90;;;;;;5012635;28;20215;-28
2020/12/28 03:36:55;;;;;;;3.47;3.10;;;5.90;99.90;;;;;;5012149;28;20199;-28
2020/12/28 03:39:26;;;;;;;3.97;3.67;;;6.00;99.90;;;;;;5012223;28;20215;-29
2020/12/28 03:41:56;;;;;;;3.40;2.58;;;5.90;99.90;;;;;;5011437;28;20284;-28
2020/12/28 03:44:26;;;;;;;3.72;3.42;;;5.90;99.90;;;;;;5011572;28;20207;-29
2020/12/28 03:46:56;;;;;;;4.68;3.08;;;5.80;99.90;;;;;;5005004;28;20259;-28
2020/12/28 03:49:26;;;;;;;2.60;2.40;;;5.70;99.90;;;;;;4992883;28;20278;-28
2020/12/28 03:51:57;;;;;;;4.43;2.88;;;5.80;99.90;;;;;;5002209;28;20207;-27
2020/12/28 03:54:27;;;;;;;3.17;2.88;;;5.80;99.90;;;;;;5009860;28;20257;-28
2020/12/28 03:56:57;;;;;;;2.63;2.38;;;5.80;99.90;;;;;;5013928;28;20203;-27
2020/12/28 03:59:27;;;;;;;2.70;2.50;;;5.80;99.90;;;;;;5017023;28;20233;-28
2020/12/28 04:01:58;;;;;;;2.90;2.67;;;5.90;99.90;;;;;;5011549;28;20192;-28
2020/12/28 04:04:28;;;;;;;4.35;3.03;;;5.80;99.90;;;;;;5011578;28;20610;-28
2020/12/28 04:06:59;;;;;;;3.47;3.17;;;5.80;99.90;;;;;;5012287;28;20230;-28
2020/12/28 04:09:29;;;;;;;4.22;3.83;;;5.70;99.90;;;;;;5012060;28;20287;-28
2020/12/28 04:11:59;;;;;;;2.70;2.50;;;5.80;99.90;;;;;;5012005;28;20235;-28
2020/12/28 04:14:29;;;;;;;2.80;2.60;;;5.80;99.90;;;;;;5017197;28;20906;-28
2020/12/28 04:16:59;;;;;;;3.88;3.47;;;5.70;99.90;;;;;;5031494;28;20198;-28
2020/12/28 04:19:29;;;;;;;3.25;2.95;;;5.80;99.90;;;;;;5031074;28;20210;-29
2020/12/28 04:22:01;;;;;;;2.88;2.58;;;5.70;99.90;;;;;;5022333;28;20271;-28
2020/12/28 04:24:31;;;;;;;3.00;2.70;;;5.70;99.90;;;;;;5022757;28;20202;-28
2020/12/28 04:27:01;;;;;;;3.33;3.13;;;5.70;99.90;;;;;;5029197;28;20205;-28
2020/12/28 04:29:31;;;;;;;3.50;3.13;;;5.70;99.90;;;;;;5027897;28;20223;-28
2020/12/28 04:32:01;;;;;;;3.92;3.42;;;5.70;99.90;;;;;;5017399;28;20203;-28
2020/12/28 04:34:32;;;;;;;3.15;2.95;;;5.70;99.90;;;;;;5004068;28;20219;-28
2020/12/28 04:37:03;;;;;;;4.50;4.10;;;5.60;99.90;;;;;;5010228;28;20206;-28
2020/12/28 04:39:33;;;;;;;3.20;3.00;;;5.60;99.90;;;;;;5011517;28;20230;-28
2020/12/28 04:42:03;;;;;;;3.83;3.15;;;5.50;99.90;;;;;;5010156;28;20257;-29
2020/12/28 04:44:33;;;;;;;3.60;3.30;;;5.50;99.90;;;;;;5011128;28;20270;-28
2020/12/28 04:47:03;;;;;;;3.70;3.40;;;5.50;99.90;;;;;;5011987;28;20574;-28
2020/12/28 04:49:34;;;;;;;3.08;2.67;;;5.50;99.90;;;;;;5009487;28;20285;-28
2020/12/28 04:52:06;;;;;;;3.60;3.00;;;5.50;99.90;;;;;;5008660;28;20604;-28
2020/12/28 04:54:36;;;;;;;3.10;2.90;;;5.50;99.90;;;;;;5011368;28;20258;-28
2020/12/28 04:57:06;;;;;;;3.50;3.20;;;5.50;99.90;;;;;;5008520;28;20210;-28
2020/12/28 04:59:36;;;;;;;2.70;2.50;;;5.50;99.90;;;;;;4999984;28;20206;-28
2020/12/28 05:02:07;;;;;;;2.60;2.40;;;5.50;99.90;;;;;;5014162;28;20260;-28
2020/12/28 05:04:37;;;;;;;2.40;2.20;;;5.50;99.90;;;;;;5030882;28;20187;-27
2020/12/28 05:07:09;;;;;;;2.80;2.50;;;5.50;99.90;;;;;;5026042;28;20210;-27
2020/12/28 05:09:39;;;;;;;3.08;2.15;;;5.50;99.90;;;;;;5030870;28;20218;-27
2020/12/28 05:12:09;;;;;;;2.70;2.50;;;5.50;99.90;;;;;;5029478;28;20225;-28
2020/12/28 05:14:39;;;;;;;2.88;2.60;;;5.50;99.90;;;;;;5023375;28;20197;-28
2020/12/28 05:17:10;;;;;;;2.88;2.25;;;5.40;99.90;;;;;;4991434;28;20204;-29
2020/12/28 05:19:40;;;;;;;2.55;2.35;;;5.50;99.90;;;;;;4991761;28;20199;-28
2020/12/28 05:22:11;;;;;;;2.22;2.03;;;5.50;99.90;;;;;;5003231;28;20275;-29
2020/12/28 05:24:44;;;;;;;2.67;2.47;;;5.50;99.90;;;;;;5011362;28;20195;-28
2020/12/28 05:27:18;;;;;;;3.22;2.00;;;5.50;99.90;;;;;;5010608;28;20195;-28
2020/12/28 05:29:50;;;;;;;2.78;2.58;;;5.50;99.90;;;;;;5010922;28;20223;-28
2020/12/28 05:32:20;;;;;;;2.28;2.10;;;5.60;99.90;;;;;;5010697;28;20341;-28
2020/12/28 05:34:50;;;;;;;2.40;2.20;;;5.60;99.90;;;;;;5010329;28;20196;-28
2020/12/28 05:37:22;;;;;;;3.10;2.83;;;5.60;99.90;;;;;;4991338;28;20751;-28
2020/12/28 05:39:53;;;;;;;5.47;4.40;;;5.60;99.90;;;;;;4991051;28;20226;-28
2020/12/28 05:42:23;;;;;;;4.32;3.53;;;5.50;99.90;;;;;;5003039;28;20257;-28
2020/12/28 05:44:54;;;;;;;3.28;2.80;;;5.50;99.90;;;;;;5009908;28;20239;-28
2020/12/28 05:47:27;;;;;;;2.08;1.92;;;5.50;99.90;;;;;;5010205;28;20230;-29
2020/12/28 05:49:58;;;;;;;3.50;3.20;;;5.50;99.90;;;;;;5008906;28;20512;-29
2020/12/28 05:52:30;;;;;;;3.05;2.75;;;5.50;99.90;;;;;;5007819;28;20640;-28
2020/12/28 05:55:04;;;;;;;1.90;1.80;;;5.40;99.90;;;;;;5010041;28;20196;-28
2020/12/28 05:57:34;;;;;;;2.47;2.28;;;5.40;99.90;;;;;;5009658;28;20643;-28
2020/12/28 06:00:04;;;;;;;3.30;2.67;;;5.50;99.90;;;;;;5009786;28;20200;-28
2020/12/28 06:02:39;;;;;;;4.10;3.28;;;5.40;99.90;;;;;;5010585;28;20218;-27
2020/12/28 06:05:12;;;;;;;2.90;2.70;;;5.40;99.90;;;;;;5024903;28;20186;-27
2020/12/28 06:07:44;;;;;;;2.25;2.05;;;5.30;99.90;;;;;;5027676;28;20202;-28
2020/12/28 06:10:15;;;;;;;2.40;2.20;;;5.40;99.90;;;;;;5020976;28;20678;-28
2020/12/28 06:12:45;;;;;;;2.78;2.58;;;5.40;99.90;;;;;;5009700;28;20241;-29
2020/12/28 06:15:19;;;;;;;3.03;2.83;;;5.40;99.90;;;;;;5013592;28;20200;-29
2020/12/28 06:17:49;;;;;;;2.00;1.90;;;5.40;99.90;;;;;;5014148;28;20191;-29
2020/12/28 06:20:29;;;;;;;1.73;1.63;;;5.30;99.90;;;;;;5009869;28;20598;-29
2020/12/28 06:23:06;;;;;;;2.05;1.80;;;5.40;99.90;;;;;;5010439;28;20195;-29
2020/12/28 06:25:36;;;;;;;2.20;1.90;;;5.30;99.90;;;;;;5009879;28;20701;-29
2020/12/28 06:28:08;;;;;;;2.55;2.10;;;5.30;99.90;;;;;;5007375;28;20199;-28
2020/12/28 06:30:38;;;;;;;2.10;1.90;;;5.40;99.90;;;;;;5009581;28;20261;-29
2020/12/28 06:33:08;;;;;;;2.42;2.22;;;5.30;99.90;;;;;;5009719;28;20214;-28
2020/12/28 06:35:39;;;;;;;2.65;2.10;;;5.30;99.90;;;;;;5009619;28;20211;-28
2020/12/28 06:38:10;;;;;;;1.75;1.65;;;5.30;99.90;;;;;;5009835;28;20297;-28
2020/12/28 06:40:41;;;;;;;2.30;2.10;;;5.40;99.90;;;;;;5010019;28;20627;-28
2020/12/28 06:43:13;;;;;;;1.83;1.73;;;5.30;99.90;;;;;;5003176;28;20301;-28
2020/12/28 06:45:45;;;;;;;2.80;1.90;;;5.30;99.90;;;;;;5009268;28;20203;-28
2020/12/28 06:48:19;;;;;;;2.85;2.55;;;5.30;99.90;;;;;;5010224;28;20250;-28
2020/12/28 06:50:50;;;;;;;2.08;1.98;;;5.40;99.90;;;;;;5009856;28;20226;-28
2020/12/28 06:53:23;;;;;;;2.38;2.17;;;5.40;99.90;;;;;;5009851;28;20249;-28
2020/12/28 06:55:53;;;;;;;2.15;1.90;;;5.40;99.90;;;;;;5009418;28;20227;-28
2020/12/28 06:58:23;;;;;;;4.43;2.00;;;5.40;99.90;;;;;;5010027;28;20203;-29
2020/12/28 07:00:59;;;;;;;1.65;1.55;;;5.40;99.90;;;;;;5013223;28;20222;-28
2020/12/28 07:03:29;;;;;;;1.67;1.55;;;5.40;99.90;;;;;;5013409;28;20374;-28
2020/12/28 07:06:03;;;;;;;2.20;1.70;;;5.50;99.90;;;;;;5019901;28;20206;-27
2020/12/28 07:08:39;;;;;;;2.22;1.90;;;5.50;99.90;;;;;;5013805;28;20200;-28
2020/12/28 07:11:09;;;;;;;2.15;1.95;;;5.60;99.90;;;;;;5012416;28;20249;-29
2020/12/28 07:13:39;;;;;;;1.90;1.80;;;5.60;99.90;;;;;;5013313;28;20207;-29
2020/12/28 07:16:10;;;;;;;1.80;1.70;;;5.50;99.90;;;;;;5009098;28;20199;-29
2020/12/28 07:18:40;;;;;;;1.80;1.65;;;5.60;99.90;;;;;;5008372;28;20206;-29
2020/12/28 07:21:10;;;;;;;3.90;2.00;;;5.60;99.90;;;;;;5023041;28;20203;-29
2020/12/28 07:23:41;;;;;;;1.98;1.80;;;5.50;99.90;;;;;;5025539;28;20209;-28
2020/12/28 07:26:12;;;;;;;1.85;1.70;;;5.50;99.90;;;;;;5031591;28;20576;-29
2020/12/28 07:28:47;;;;;;;1.80;1.70;;;5.50;99.90;;;;;;5021317;28;20223;-29
2020/12/28 07:31:21;;;;;;;2.28;1.50;;;5.50;99.90;;;;;;5012412;28;20223;-29
2020/12/28 07:33:51;;;;;;;2.53;2.05;;;5.50;99.90;;;;;;5012559;28;20623;-29
2020/12/28 07:36:24;;;;;;;2.17;1.98;;;5.50;99.90;;;;;;5012187;28;20238;-29
2020/12/28 07:38:57;;;;;;;2.42;2.22;;;5.50;99.90;;;;;;5012850;28;20631;-29
2020/12/28 07:41:27;;;;;;;2.83;2.17;;;5.40;99.90;;;;;;5011883;28;20195;-29
2020/12/28 07:43:59;;;;;;;1.70;1.60;;;5.40;99.90;;;;;;5012609;28;20191;-28
2020/12/28 07:46:44;;;;;;;2.58;2.10;;;5.30;99.90;;;;;;5012173;28;20565;-28
2020/12/28 07:49:20;;;;;;;2.95;2.22;;;5.30;99.90;;;;;;5012029;28;20611;-27
2020/12/28 07:51:54;;;;;;;3.25;1.80;;;5.20;99.90;;;;;;5011429;28;20598;-27
2020/12/28 07:54:32;;;;;;;2.40;2.13;;;5.10;99.90;;;;;;5012359;28;20674;-27
2020/12/28 07:57:04;;;;;;;2.20;2.00;;;5.10;99.90;;;;;;5011945;28;20191;-28
2020/12/28 07:59:47;;;;;;;2.40;2.20;;;5.10;99.90;;;;;;5010931;28;20195;-28
2020/12/28 08:02:41;;;;;;;2.30;1.83;;;5.10;99.90;;;;;;5012462;28;20232;-27
2020/12/28 08:05:12;;;;;;;2.50;2.28;;;5.10;99.90;;;;;;5011630;28;20289;-28
2020/12/28 08:07:42;;;;;;;2.63;2.40;;;5.00;99.90;;;;;;5012232;28;20529;-28
2020/12/28 08:10:14;;;;;;;2.40;2.20;;;5.00;99.90;;;;;;5010670;28;20242;-28
2020/12/28 08:12:51;;;;;;;2.47;2.25;;;5.00;99.90;;;;;;5011058;28;20626;-28
2020/12/28 08:15:29;;;;;;;2.80;2.60;;;5.00;99.90;;;;;;4991740;28;20241;-28
2020/12/28 08:18:07;;;;;;;2.03;1.92;;;4.90;99.90;;;;;;4992674;28;20192;-28
2020/12/28 08:20:38;;;;;;;3.42;1.83;;;4.90;99.90;;;;;;4992247;28;20192;-28
2020/12/28 08:23:08;;;;;;;2.30;1.90;;;4.90;99.90;;;;;;4993080;28;20192;-28
2020/12/28 08:25:42;;;;;;;2.20;2.00;;;4.80;99.90;;;;;;5011935;28;20206;-28
2020/12/28 08:28:12;;;;;;;2.78;2.58;;;4.80;99.90;;;;;;5011734;28;20309;-29
2020/12/28 08:30:43;;;;;;;2.53;2.33;;;4.90;99.90;;;;;;5010992;28;20253;-28
2020/12/28 08:33:16;;;;;;;2.97;2.45;;;4.80;99.90;;;;;;5011939;28;20192;-29
2020/12/28 08:35:51;;;;;;;2.90;2.50;;;4.80;99.90;;;;;;5011300;28;20250;-28
2020/12/28 08:38:32;;;;;;;2.15;1.95;;;4.70;99.90;;;;;;5011667;28;20222;-28
2020/12/28 08:41:03;;;;;;;3.42;3.13;;;4.70;99.90;;;;;;5011384;28;20198;-28
2020/12/28 08:43:33;;;;;;;2.58;2.10;;;4.80;99.90;;;;;;5011858;28;20188;-29
2020/12/28 08:46:05;;;;;;;2.80;2.00;;;4.70;99.90;;;;;;5011199;28;20305;-29
2020/12/28 08:48:35;;;;;;;2.25;2.05;;;4.70;99.90;;;;;;5011620;28;20700;-28
2020/12/28 08:51:15;;;;;;;2.33;2.03;;;4.70;99.90;;;;;;5011190;28;20284;-28
2020/12/28 08:53:49;;;;;;;2.30;2.10;;;4.70;99.90;;;;;;4992217;28;20191;-28
2020/12/28 08:56:20;;;;;;;2.40;2.17;;;4.60;99.90;;;;;;5003975;28;20208;-28
2020/12/28 08:58:52;;;;;;;2.97;2.10;;;4.60;99.90;;;;;;4992042;28;20538;-29
2020/12/28 09:01:22;;;;;;;2.88;2.65;;;4.50;99.90;;;;;;4991257;28;20268;-29
2020/12/28 09:03:52;;;;;;;2.42;1.80;;;4.50;99.90;;;;;;4999108;28;20198;-29
2020/12/28 09:06:22;;;;;;;2.33;2.10;;;4.50;99.90;;;;;;5010642;28;20651;-29
2020/12/28 09:08:52;;;;;;;2.30;2.05;;;4.60;99.90;;;;;;5011591;28;20203;-29
2020/12/28 09:11:23;;;;;;;2.20;2.10;;;4.60;99.90;;;;;;5010476;28;20254;-29
2020/12/28 09:13:54;;;;;;;1.80;1.70;;;4.60;99.90;;;;;;5011254;28;20257;-29
2020/12/28 09:16:26;;;;;;;1.65;1.55;;;4.70;99.90;;;;;;5010509;28;20702;-29
2020/12/28 09:18:56;;;;;;;2.03;1.92;;;4.70;99.90;;;;;;5011300;28;20191;-29
2020/12/28 09:21:26;;;;;;;2.53;2.30;;;4.70;99.90;;;;;;5010585;28;20203;-29
2020/12/28 09:23:56;;;;;;;1.88;1.38;;;4.70;99.90;;;;;;5011197;28;20214;-29
2020/12/28 09:26:28;;;;;;;1.77;1.65;;;4.70;99.90;;;;;;5010109;28;20195;-29
2020/12/28 09:28:58;;;;;;;2.30;1.85;;;4.70;99.90;;;;;;5011130;28;20191;-29
2020/12/28 09:31:29;;;;;;;1.90;1.70;;;4.70;99.90;;;;;;5010388;28;20758;-29
2020/12/28 09:33:59;;;;;;;2.08;1.83;;;4.60;99.90;;;;;;5011238;28;20253;-29
2020/12/28 09:36:29;;;;;;;1.50;1.40;;;4.60;99.90;;;;;;5010196;28;20257;-29
2020/12/28 09:38:59;;;;;;;1.60;1.50;;;4.60;99.90;;;;;;5010841;28;20272;-29
2020/12/28 09:41:30;;;;;;;1.85;1.75;;;4.60;99.90;;;;;;5010193;28;20257;-28
2020/12/28 09:44:00;;;;;;;2.47;1.83;;;4.60;99.90;;;;;;5010513;28;20199;-28
2020/12/28 09:46:30;;;;;;;2.70;2.03;;;4.50;99.90;;;;;;5005137;28;20199;-28
2020/12/28 09:49:00;;;;;;;2.17;2.00;;;4.50;99.90;;;;;;5010251;28;20254;-28
2020/12/28 09:51:30;;;;;;;2.58;1.80;;;4.40;99.90;;;;;;5010407;28;20231;-27
2020/12/28 09:54:00;;;;;;;2.00;1.90;;;4.20;99.90;;;;;;5010424;28;20226;-28
2020/12/28 09:56:31;;;;;;;1.85;1.75;;;4.10;99.90;;;;;;5009611;28;20206;-28
2020/12/28 09:59:01;;;;;;;1.80;1.70;;;4.10;99.90;;;;;;5010444;28;20196;-28
2020/12/28 10:01:31;;;;;;;2.00;1.90;;;4.10;99.90;;;;;;5009908;28;20662;-28
2020/12/28 10:04:01;;;;;;;2.60;2.30;;;4.00;99.90;;;;;;5010069;28;20293;-28
2020/12/28 10:06:35;;;;;;;2.58;2.10;;;3.90;99.90;;;;;;5010004;28;20264;-28
2020/12/28 10:09:07;;;;;;;2.65;2.45;;;3.90;99.90;;;;;;5010250;28;20658;-29
2020/12/28 10:11:39;;;;;;;3.20;2.30;;;3.80;99.90;;;;;;5009846;28;20258;-28
2020/12/28 10:14:12;;;;;;;3.03;2.03;;;3.90;99.90;;;;;;5009715;28;20195;-29
2020/12/28 10:16:42;;;;;;;2.67;2.42;;;3.80;99.90;;;;;;5010025;28;20196;-28
2020/12/28 10:19:12;;;;;;;1.67;1.58;;;3.90;99.90;;;;;;5009526;28;20231;-28
2020/12/28 10:21:42;;;;;;;2.13;1.92;;;4.00;99.90;;;;;;5010323;28;20207;-28
2020/12/28 10:24:12;;;;;;;1.83;1.70;;;4.10;99.90;;;;;;5009689;28;20210;-28
2020/12/28 10:26:44;;;;;;;2.83;1.90;;;4.20;99.90;;;;;;5009377;28;20593;-28
2020/12/28 10:29:14;;;;;;;1.52;1.42;;;4.20;99.90;;;;;;5009216;28;20683;-28
2020/12/28 10:31:44;;;;;;;2.75;2.30;;;4.40;99.90;;;;;;5009784;28;20427;-28
2020/12/28 10:34:14;;;;;;;2.67;2.40;;;4.40;99.90;;;;;;5011490;28;20689;-29
2020/12/28 10:36:46;;;;;;;2.50;2.30;;;4.40;99.90;;;;;;5007622;28;20241;-28
2020/12/28 10:39:16;;;;;;;2.55;2.30;;;4.40;99.90;;;;;;5013376;28;20566;-28
2020/12/28 10:41:47;;;;;;;2.28;2.08;;;4.50;99.90;;;;;;5013564;28;20225;-28
2020/12/28 10:44:19;;;;;;;2.25;2.15;;;4.50;99.90;;;;;;5013358;28;20274;-28
2020/12/28 10:46:50;;;;;;;2.05;1.70;;;4.50;99.90;;;;;;5013902;28;20670;-29
2020/12/28 10:49:20;;;;;;;1.40;1.30;;;4.40;99.90;;;;;;5013162;28;20199;-28
2020/12/28 10:51:50;;;;;;;2.45;2.00;;;4.40;99.90;;;;;;5013722;28;20607;-29
2020/12/28 10:54:20;;;;;;;1.88;1.77;;;4.40;99.90;;;;;;5013178;28;20211;-28
2020/12/28 10:56:52;;;;;;;1.73;1.60;;;4.40;99.90;;;;;;5013059;28;20195;-28
2020/12/28 10:59:22;;;;;;;1.52;1.42;;;4.40;99.90;;;;;;5012958;28;20655;-28
2020/12/28 11:01:56;;;;;;;2.63;2.10;;;4.40;99.90;;;;;;5013941;28;20206;-28
2020/12/28 11:04:26;;;;;;;2.17;1.98;;;4.40;99.90;;;;;;5013152;28;20261;-28
2020/12/28 11:06:56;;;;;;;2.28;2.08;;;4.40;99.90;;;;;;5013208;28;20242;-28
2020/12/28 11:09:26;;;;;;;2.45;2.08;;;4.40;99.90;;;;;;5012614;28;20222;-28
2020/12/28 11:11:57;;;;;;;2.13;1.92;;;4.50;99.90;;;;;;5012417;28;20234;-28
2020/12/28 11:14:27;;;;;;;2.13;1.90;;;4.60;99.90;;;;;;5012379;28;20410;-28
2020/12/28 11:17:03;;;;;;;2.30;2.17;;;4.50;99.90;;;;;;5012820;28;20205;-29
2020/12/28 11:19:33;;;;;;;3.08;2.08;;;4.60;99.90;;;;;;5012570;28;20200;-29
2020/12/28 11:22:03;;;;;;;2.60;2.20;;;4.60;99.90;;;;;;5013255;28;20651;-29
2020/12/28 11:24:33;;;;;;;3.97;2.55;;;4.60;99.90;;;;;;5013047;28;20269;-29
2020/12/28 11:27:04;;;;;;;2.30;2.10;;;4.60;99.90;;;;;;5012610;28;20651;-29
2020/12/28 11:29:34;;;;;;;2.15;2.00;;;4.60;99.90;;;;;;5012293;28;20191;-29
2020/12/28 11:32:05;;;;;;;2.00;1.90;;;4.60;99.90;;;;;;5012757;28;20340;-28
2020/12/28 11:34:35;;;;;;;2.45;2.00;;;4.70;99.90;;;;;;5012741;28;20211;-28
2020/12/28 11:37:06;;;;;;;3.00;2.75;;;4.70;99.90;;;;;;5012686;28;20289;-28
2020/12/28 11:39:36;;;;;;;2.90;2.25;;;4.70;99.90;;;;;;5012513;28;20590;-28
2020/12/28 11:42:07;;;;;;;3.17;2.15;;;4.70;99.90;;;;;;5012435;28;20215;-28
2020/12/28 11:44:37;;;;;;;2.25;1.88;;;4.70;99.90;;;;;;5011715;28;20218;-28
2020/12/28 11:47:07;;;;;;;3.00;2.30;;;4.70;99.90;;;;;;5012392;28;20265;-28
2020/12/28 11:49:37;;;;;;;2.20;2.00;;;4.60;99.90;;;;;;5011990;28;20262;-28
2020/12/28 11:52:07;;;;;;;2.55;2.42;;;4.60;99.90;;;;;;5012286;28;20261;-28
2020/12/28 11:54:37;;;;;;;2.53;2.33;;;4.60;99.90;;;;;;5012264;28;20199;-28
2020/12/28 11:57:10;;;;;;;2.72;2.35;;;4.60;99.90;;;;;;5011624;28;20188;-29
2020/12/28 11:59:40;;;;;;;2.47;1.92;;;4.70;99.90;;;;;;5011855;28;20277;-29
2020/12/28 12:02:10;;;;;;;1.65;1.55;;;4.70;99.90;;;;;;5012119;28;20223;-29
2020/12/28 12:04:49;;;;;;;3.47;2.10;;;4.70;99.90;;;;;;5011959;28;20608;-27
2020/12/28 12:07:22;;;;;;;2.15;1.75;;;4.60;99.90;;;;;;5012066;28;20203;-28
2020/12/28 12:09:53;;;;;;;2.03;1.90;;;4.60;99.90;;;;;;5011921;28;20257;-28
2020/12/28 12:12:24;;;;;;;1.83;1.73;;;4.60;99.90;;;;;;5011687;28;20242;-27
2020/12/28 12:14:55;;;;;;;1.60;1.50;;;4.70;99.90;;;;;;4997291;28;20828;-27
2020/12/28 12:17:25;;;;;;;2.20;1.98;;;4.70;99.90;;;;;;5010155;28;20277;-28
2020/12/28 12:19:56;;;;;;;2.50;2.30;;;4.70;99.90;;;;;;5012009;28;20279;-28
2020/12/28 12:22:26;;;;;;;1.70;1.60;;;4.60;99.90;;;;;;5011671;28;20686;-28
2020/12/28 12:24:56;;;;;;;2.50;1.90;;;4.60;99.90;;;;;;5011961;28;20226;-27
2020/12/28 12:27:27;;;;;;;2.40;2.20;;;4.60;99.90;;;;;;5011205;28;20200;-27
2020/12/28 12:30:13;;;;;;;2.30;2.10;;;4.60;99.90;;;;;;5010962;28;20305;-27
2020/12/28 12:32:43;;;;;;;2.20;1.88;;;4.60;99.90;;;;;;5011737;28;20312;-28
2020/12/28 12:35:13;;;;;;;2.58;2.17;;;4.70;99.90;;;;;;5011732;28;20717;-27
2020/12/28 12:37:44;;;;;;;2.47;2.25;;;4.80;99.90;;;;;;5011510;28;20227;-27
2020/12/28 12:40:14;;;;;;;2.53;2.10;;;4.80;99.90;;;;;;5011436;28;20756;-28
2020/12/28 12:42:45;;;;;;;2.30;1.90;;;4.80;99.90;;;;;;5010801;28;20203;-28
2020/12/28 12:45:15;;;;;;;3.05;2.85;;;4.80;99.90;;;;;;5010835;28;20245;-28
2020/12/28 12:47:45;;;;;;;1.90;1.80;;;4.80;99.90;;;;;;5011319;28;20206;-28
2020/12/28 12:50:15;;;;;;;2.25;2.03;;;4.70;99.90;;;;;;4991617;28;20231;-29
2020/12/28 12:52:45;;;;;;;1.95;1.80;;;4.70;99.90;;;;;;5006970;28;20199;-28
2020/12/28 12:55:15;;;;;;;1.90;1.75;;;4.70;99.90;;;;;;5011181;28;20604;-30
2020/12/28 12:57:46;;;;;;;2.15;2.03;;;4.70;99.90;;;;;;5009854;28;20301;-28
2020/12/28 13:00:18;;;;;;;1.90;1.70;;;4.70;99.90;;;;;;5010586;28;20203;-29
2020/12/28 13:02:48;;;;;;;2.40;1.83;;;4.70;99.90;;;;;;5010900;28;20290;-29
2020/12/28 13:05:19;;;;;;;3.22;2.33;;;4.70;99.90;;;;;;5011023;28;20298;-28
2020/12/28 13:07:49;;;;;;;3.08;2.22;;;4.70;99.90;;;;;;5011267;28;20621;-29
2020/12/28 13:10:19;;;;;;;2.80;2.40;;;4.70;99.90;;;;;;5010909;28;20222;-29
2020/12/28 13:12:50;;;;;;;2.50;2.22;;;4.70;99.90;;;;;;5010299;28;20289;-28
2020/12/28 13:15:20;;;;;;;1.90;1.75;;;4.60;99.90;;;;;;5010370;28;20194;-28
2020/12/28 13:17:50;;;;;;;2.13;1.92;;;4.60;99.90;;;;;;5010966;28;20273;-28